Alcova, WY (82620)

6:41 AM MDT on July 10, 2014 (GMT -0600)
The Estates (KWYALCOV2) Elev 5489 ft | 42.53 °N, 106.78 °W | Change Station

Current weather conditions updated 2 seconds ago

Clear
Clear
72.1 °F
Feels Like 77 °F
N
10.0
Wind Variable Wind from South
Gusts 22.0 mph

Today is forecast to be Cooler than yesterday. Showers and thunderstorms early tonight.

Today
High -- | Low -- °F
--% Chance of Precip.
Yesterday
High -- | Low -- °F
Precip. -- in
5:39 AM 8:45 PM
Waxing Gibbous, 94% visible
Pressure 29.78 in
Visibility 10.0 miles
Clouds Clear
Heat Index 77 °F
Dew Point 44 °F
Humidity 37%
Rainfall 0.00 in
Snow Depth Not available.
UV 0 out of 12
Pollen 5.40 out of 12
Air Quality Not available.
Flu Activity Sporadic
METAR KCPR 101153Z 19007KT 10SM CLR 14/12 A3000 RMK AO2 SLP082 T01440117 10250 20144 53021

More Conditions Fewer Conditions

Pressure 29.78 in
Visibility 10.0 miles
Clouds Clear
Heat Index 77 °F
Dew Point 44 °F
Humidity 37%
Rainfall 0.00 in
Snow Depth Not available.
UV 0 out of 12
Pollen 5.40 out of 12
Air Quality Not available.
Flu Activity Sporadic
METAR KCPR 101153Z 19007KT 10SM CLR 14/12 A3000 RMK AO2 SLP082 T01440117 10250 20144 53021

More Conditions Fewer Conditions

10-Day Weather Forecast

Almanac

Astronomy

Jul. 10, 2014 Rise Set
Actual Time 5:39 AM MDT 8:45 PM MDT
Civil Twilight 5:05 AM MDT 9:19 PM MDT
Nautical Twilight 4:21 AM MDT 10:03 PM MDT
Astronomical Twilight 3:29 AM MDT 10:55 PM MDT
Moon 7:00 PM MDT 3:55 AM MDT
Length of Visible Light 16h 14m
Length of Day
15h 06m
Tomorrow will be 1m 15s shorter.
Waxing Gibbous, 94% of the Moon is Illuminated
Today
Waxing Gibbous
Jul 12
Full
Jul 18
Last Quarter
Jul 26
New
Aug 3
First Quarter

Today's Extremes

State Highs State Lows

Community

WunderPhotos

Upload Photos

1,732,119 photos uploaded!

Nearby

Snow Depth

Station Depth Elevation
Casper Mountain 0 in 7850 ft
Reno Hill 0 in 8500 ft
Grave Springs 0 in 8550 ft
Sage Creek Basin 0 in 7850 ft
Sand Lake 0 in 10050 ft

Earthquake Activity

City Distance Mag. Time & Date
No recent earthquake activity has been reported nearby.
Minimum magnitude displayed is 2.5.

Coastal Water Temperatures

Place Temperature
No Stations Reporting

Nearby Weather Stations

Station Location Temp. Heat Index Dew Point Humidity Wind Precip. Elev Updated Type
The Estates, Alcova, WY 72.1 °F 77 °F 44 °F 37% South  at  10.0 mph 0.00 in / hr 5489 ft 6:41 AM MDT Rapid Fire

Show More Stations Show Fewer Stations